Time;durP1;ratioP1;P1;durP2;ratioP2;P2;SDS_P1;SDS_P2;PMS_P1;PMS_P2;Temp;Humidity;BMP_temperature;BMP_pressure;BME280_temperature;BME280_humidity;BME280_pressure;Samples;Min_cycle;Max_cycle;Signal;HPM_P1;HPM_P2
2022/03/10 00:01:57;;;;;;;7.97;4.72;;;;;;;1.55;60.58;102332.41;5050831;28;20098;-71
2022/03/10 00:04:24;;;;;;;11.40;5.05;;;;;;;1.37;61.27;102338.19;5051562;28;20053;-71
2022/03/10 00:06:51;;;;;;;11.35;5.70;;;;;;;1.36;61.60;102341.66;5051312;28;20052;-71
2022/03/10 00:09:18;;;;;;;9.40;4.93;;;;;;;1.53;60.96;102345.28;5049857;28;20178;-71
2022/03/10 00:11:44;;;;;;;9.75;5.10;;;;;;;1.60;60.95;102349.66;5051476;28;20077;-72
2022/03/10 00:14:10;;;;;;;10.63;5.32;;;;;;;1.64;60.65;102347.97;5051348;28;20075;-71
2022/03/10 00:16:37;;;;;;;11.00;4.93;;;;;;;1.64;60.19;102353.16;5051427;28;20056;-71
2022/03/10 00:19:04;;;;;;;9.32;5.10;;;;;;;1.31;60.41;102363.97;5048866;28;20134;-71
2022/03/10 00:21:30;;;;;;;11.93;5.43;;;;;;;1.46;59.37;102357.28;5048244;28;20076;-71
2022/03/10 00:23:58;;;;;;;10.85;4.88;;;;;;;1.48;59.15;102362.44;5050332;28;20079;-71
2022/03/10 00:26:24;;;;;;;11.50;5.45;;;;;;;1.43;59.33;102364.13;5050818;28;20066;-71
2022/03/10 00:28:51;;;;;;;9.20;4.68;;;;;;;1.55;59.49;102366.88;5050131;28;20457;-71
2022/03/10 00:31:17;;;;;;;11.40;5.00;;;;;;;1.61;59.58;102373.81;5050726;28;20134;-71
2022/03/10 00:33:45;;;;;;;10.73;5.97;;;;;;;1.36;60.67;102378.72;5051527;28;20076;-71
2022/03/10 00:36:12;;;;;;;9.10;4.85;;;;;;;1.27;61.37;102382.88;5050310;28;20076;-71
2022/03/10 00:38:38;;;;;;;12.25;5.43;;;;;;;1.13;61.58;102380.13;5050862;28;20774;-71
2022/03/10 00:41:06;;;;;;;14.27;5.50;;;;;;;1.19;61.94;102384.50;5050532;28;20055;-71
2022/03/10 00:43:32;;;;;;;12.63;5.80;;;;;;;1.16;61.76;102385.34;5049979;28;20568;-71
2022/03/10 00:45:58;;;;;;;13.48;5.90;;;;;;;1.27;61.33;102383.75;5050511;28;20479;-71
2022/03/10 00:48:25;;;;;;;9.75;5.78;;;;;;;1.20;61.20;102376.78;5051241;28;20505;-71
2022/03/10 00:50:51;;;;;;;11.95;5.45;;;;;;;1.28;60.70;102372.56;5048432;28;20500;-71
2022/03/10 00:53:17;;;;;;;11.75;6.13;;;;;;;1.21;61.36;102383.69;5047977;28;20060;-71
2022/03/10 00:55:44;;;;;;;11.70;5.32;;;;;;;1.08;60.89;102371.44;5050613;28;20075;-71
2022/03/10 00:58:11;;;;;;;11.85;5.97;;;;;;;0.97;61.84;102381.63;5046254;28;20635;-71
2022/03/10 01:00:38;;;;;;;11.88;5.38;;;;;;;0.51;63.22;102375.78;5049470;28;20068;-71
2022/03/10 01:03:05;;;;;;;11.55;5.95;;;;;;;0.70;63.15;102365.75;5050312;28;20061;-71
2022/03/10 01:05:32;;;;;;;10.52;5.43;;;;;;;0.80;63.02;102361.59;5050529;28;20089;-71
2022/03/10 01:07:58;;;;;;;15.45;6.35;;;;;;;0.39;64.31;102360.97;5035413;28;20107;-71
2022/03/10 01:10:25;;;;;;;9.27;5.30;;;;;;;0.52;63.59;102364.63;5038952;28;20133;-71
2022/03/10 01:12:51;;;;;;;12.23;5.80;;;;;;;0.57;63.12;102371.59;5049311;28;20080;-71
2022/03/10 01:15:21;;;;;;;12.85;5.40;;;;;;;0.66;63.01;102371.72;5049904;28;20081;-71
2022/03/10 01:17:48;;;;;;;10.73;6.25;;;;;;;0.61;63.19;102367.34;5033712;28;20057;-71
2022/03/10 01:20:15;;;;;;;13.65;6.00;;;;;;;0.62;63.10;102369.06;5041137;28;20519;-71
2022/03/10 01:22:41;;;;;;;9.20;5.22;;;;;;;0.55;63.22;102383.63;5049888;28;20131;-71
2022/03/10 01:25:09;;;;;;;13.00;5.25;;;;;;;0.37;63.64;102380.75;5050438;28;20077;-71
2022/03/10 01:27:36;;;;;;;14.40;6.57;;;;;;;0.36;64.55;102381.59;5049982;28;20049;-71
2022/03/10 01:30:03;;;;;;;13.27;6.30;;;;;;;0.30;65.12;102386.63;5046807;28;20100;-71
2022/03/10 01:32:31;;;;;;;11.45;5.85;;;;;;;0.33;65.15;102381.53;5049805;28;20072;-71
2022/03/10 01:34:57;;;;;;;12.60;5.00;;;;;;;0.47;63.90;102380.03;5049576;28;20049;-71
2022/03/10 01:37:23;;;;;;;11.30;5.07;;;;;;;0.57;62.28;102387.06;5049767;28;20102;-71
2022/03/10 01:39:50;;;;;;;8.57;4.90;;;;;;;0.31;62.72;102388.38;5048806;28;20146;-71
2022/03/10 01:42:17;;;;;;;12.52;5.70;;;;;;;0.27;64.25;102396.91;5049572;28;20052;-71
2022/03/10 01:44:43;;;;;;;10.52;5.70;;;;;;;0.12;63.82;102399.22;5049707;28;20611;-71
2022/03/10 01:47:10;;;;;;;9.45;5.20;;;;;;;0.19;64.08;102388.16;5049834;28;20455;-71
2022/03/10 01:49:38;;;;;;;9.65;5.05;;;;;;;0.25;63.74;102396.00;5049073;28;20079;-71
2022/03/10 01:52:05;;;;;;;12.48;5.22;;;;;;;0.11;64.52;102394.91;5049274;28;20056;-71
2022/03/10 01:54:31;;;;;;;9.77;5.22;;;;;;;-0.11;64.92;102399.66;5049687;28;20067;-71
2022/03/10 01:56:59;;;;;;;11.85;5.60;;;;;;;0.05;65.77;102397.38;5049455;28;20126;-71
2022/03/10 01:59:27;;;;;;;15.07;5.95;;;;;;;-0.13;66.83;102392.75;5048954;28;20098;-72
2022/03/10 02:01:53;;;;;;;12.35;5.68;;;;;;;0.14;65.92;102384.66;5047108;28;20130;-72
2022/03/10 02:04:19;;;;;;;11.45;5.78;;;;;;;-0.03;66.09;102398.09;5049152;28;20075;-72
2022/03/10 02:06:47;;;;;;;13.13;7.10;;;;;;;0.04;65.39;102396.50;5049143;28;20098;-72
2022/03/10 02:11:57;;;;;;;12.13;6.20;;;;;;;0.06;65.88;102392.25;5032937;28;20049;-73
2022/03/10 02:17:23;;;;;;;16.55;7.38;;;;;;;0.13;66.50;102388.06;5048471;28;20056;-72
2022/03/10 02:19:51;;;;;;;13.52;6.60;;;;;;;-0.03;67.41;102390.38;5041857;28;20515;-71
2022/03/10 02:22:19;;;;;;;17.05;6.38;;;;;;;0.05;65.48;102400.81;5033297;28;20049;-72
2022/03/10 02:24:47;;;;;;;15.98;6.80;;;;;;;0.27;64.99;102386.56;5048711;28;20052;-72
2022/03/10 02:27:15;;;;;;;15.05;6.75;;;;;;;0.22;64.31;102383.91;5047586;28;20049;-72
2022/03/10 02:29:43;;;;;;;14.10;6.53;;;;;;;0.04;65.37;102393.91;5047477;28;20049;-72
2022/03/10 02:32:09;;;;;;;19.92;7.35;;;;;;;-0.09;66.61;102392.84;5048833;28;20485;-72
2022/03/10 02:34:36;;;;;;;16.42;6.35;;;;;;;-0.18;66.74;102391.78;5048489;28;20052;-72
2022/03/10 02:37:02;;;;;;;16.75;6.85;;;;;;;-0.18;66.71;102396.94;5048943;28;20080;-72
2022/03/10 02:39:30;;;;;;;11.93;6.30;;;;;;;-0.11;66.01;102399.66;5045458;28;20570;-72
2022/03/10 02:41:56;;;;;;;15.25;6.80;;;;;;;-0.05;65.09;102398.94;5046184;28;20719;-72
2022/03/10 02:44:24;;;;;;;13.38;6.63;;;;;;;0.02;64.95;102402.47;5048007;28;20062;-72
2022/03/10 02:46:50;;;;;;;12.88;6.20;;;;;;;-0.07;64.93;102404.03;5048379;28;20527;-72
2022/03/10 02:49:16;;;;;;;26.08;8.18;;;;;;;-0.02;65.21;102402.44;5048082;28;20084;-72
2022/03/10 02:51:43;;;;;;;12.52;6.50;;;;;;;0.14;64.66;102394.97;5050397;28;20227;-72
2022/03/10 02:54:09;;;;;;;12.18;6.40;;;;;;;-0.13;65.28;102406.53;5051300;28;20135;-72
2022/03/10 02:56:37;;;;;;;14.07;6.90;;;;;;;-0.11;65.15;102409.16;5052557;28;20073;-72
2022/03/10 02:59:03;;;;;;;13.68;6.40;;;;;;;-0.05;64.43;102410.13;5057826;28;20065;-72
2022/03/10 03:01:30;;;;;;;12.82;6.55;;;;;;;0.10;64.15;102411.22;5055407;28;20045;-72
2022/03/10 03:03:56;;;;;;;15.63;6.97;;;;;;;0.14;63.94;102410.44;5058217;28;20044;-72
2022/03/10 03:06:22;;;;;;;12.73;6.00;;;;;;;-0.38;64.28;102413.75;5068793;28;20045;-72
2022/03/10 03:08:49;;;;;;;15.82;7.32;;;;;;;-0.20;64.98;102411.53;5079587;28;20131;-72
2022/03/10 03:11:16;;;;;;;15.48;7.63;;;;;;;-0.31;65.65;102408.75;5080022;28;20048;-72
2022/03/10 03:13:43;;;;;;;14.25;6.55;;;;;;;-0.22;65.68;102411.50;5077798;28;20111;-72
2022/03/10 03:16:10;;;;;;;12.75;6.55;;;;;;;-0.02;64.91;102412.75;5076927;28;20041;-72
2022/03/10 03:18:36;;;;;;;14.73;6.30;;;;;;;-0.35;65.25;102418.97;5075279;28;20067;-72
2022/03/10 03:21:03;;;;;;;16.42;7.90;;;;;;;-0.46;66.69;102408.44;5074304;28;20085;-72
2022/03/10 03:23:29;;;;;;;15.13;7.63;;;;;;;-0.41;66.87;102413.72;5070746;28;20033;-72
2022/03/10 03:25:55;;;;;;;14.20;7.20;;;;;;;-0.49;66.95;102413.56;5063782;28;20111;-73
2022/03/10 03:28:22;;;;;;;13.85;6.75;;;;;;;-0.67;68.31;102419.22;5050239;28;20426;-72
2022/03/10 03:30:50;;;;;;;16.55;6.90;;;;;;;-0.66;68.21;102418.34;5048818;28;20072;-72
2022/03/10 03:33:17;;;;;;;18.85;7.25;;;;;;;-0.82;68.07;102420.59;5049157;28;20076;-72
2022/03/10 03:35:43;;;;;;;14.85;6.65;;;;;;;-1.07;69.55;102417.44;5048894;28;20098;-72
2022/03/10 03:38:11;;;;;;;15.88;6.53;;;;;;;-0.82;69.46;102415.44;5047557;28;20056;-72
2022/03/10 03:40:38;;;;;;;13.85;7.05;;;;;;;-0.78;68.62;102422.38;5047975;28;20051;-72
2022/03/10 03:43:04;;;;;;;14.50;6.47;;;;;;;-1.03;70.05;102421.84;5048077;28;20162;-72
2022/03/10 03:45:30;;;;;;;15.27;6.90;;;;;;;-0.71;69.55;102425.13;5048181;28;20114;-73
2022/03/10 03:47:59;;;;;;;12.88;6.20;;;;;;;-0.53;66.06;102424.63;5048074;28;20508;-73
2022/03/10 03:50:25;;;;;;;13.70;6.35;;;;;;;-0.65;65.87;102419.22;5047522;28;20170;-73
2022/03/10 03:52:51;;;;;;;13.10;6.45;;;;;;;-0.40;65.32;102420.56;5047943;28;20151;-72
2022/03/10 03:55:18;;;;;;;11.88;6.40;;;;;;;-0.79;66.70;102423.22;5047736;28;20056;-72
2022/03/10 03:57:44;;;;;;;20.70;7.30;;;;;;;-0.94;67.66;102420.31;5048032;28;20069;-72
2022/03/10 04:00:11;;;;;;;11.48;6.45;;;;;;;-0.78;67.19;102427.53;5047683;28;20165;-72
2022/03/10 04:02:38;;;;;;;13.10;6.80;;;;;;;-0.43;65.98;102428.25;5047696;28;20138;-72
2022/03/10 04:05:07;;;;;;;16.52;7.28;;;;;;;-0.29;65.31;102422.53;5048158;28;20389;-72
2022/03/10 04:07:33;;;;;;;12.18;6.32;;;;;;;-0.41;64.77;102418.84;5048153;28;20063;-72
2022/03/10 04:09:59;;;;;;;14.05;6.78;;;;;;;-0.80;65.41;102416.31;5047023;28;20119;-72
2022/03/10 04:12:25;;;;;;;16.77;7.53;;;;;;;-0.85;68.03;102415.38;5047888;28;20080;-72
2022/03/10 04:14:52;;;;;;;14.13;7.25;;;;;;;-0.65;67.77;102414.06;5048294;28;20129;-72
2022/03/10 04:17:18;;;;;;;13.10;6.53;;;;;;;-0.76;66.24;102415.56;5047682;28;20142;-72
2022/03/10 04:19:45;;;;;;;14.98;6.68;;;;;;;-0.90;67.10;102419.53;5046471;28;20107;-73
2022/03/10 04:22:12;;;;;;;15.65;6.63;;;;;;;-0.93;66.83;102416.91;5047316;28;20141;-72
2022/03/10 04:24:39;;;;;;;13.43;6.55;;;;;;;-0.88;65.91;102417.84;5047834;28;20048;-72
2022/03/10 04:27:05;;;;;;;13.82;6.75;;;;;;;-0.81;66.09;102418.03;5044256;28;20146;-72
2022/03/10 04:29:31;;;;;;;14.18;6.90;;;;;;;-0.86;66.39;102422.22;5046788;28;20076;-72
2022/03/10 04:31:58;;;;;;;12.40;6.13;;;;;;;-0.70;66.04;102426.00;5047308;28;20135;-72
2022/03/10 04:34:24;;;;;;;13.30;7.22;;;;;;;-0.66;65.28;102428.66;5045223;28;20073;-72
2022/03/10 04:36:51;;;;;;;13.40;6.97;;;;;;;-0.79;65.97;102425.78;5044819;28;20064;-72
2022/03/10 04:39:18;;;;;;;13.80;7.10;;;;;;;-0.89;67.32;102423.88;5044413;28;20089;-72
2022/03/10 04:41:45;;;;;;;12.35;6.75;;;;;;;-0.82;66.51;102428.31;5047248;28;20077;-72
2022/03/10 04:44:11;;;;;;;17.98;7.38;;;;;;;-0.41;64.64;102432.63;5047617;28;20076;-72
2022/03/10 04:46:38;;;;;;;12.32;6.63;;;;;;;-0.36;64.02;102436.13;5049879;28;20052;-72
2022/03/10 04:49:05;;;;;;;13.25;6.65;;;;;;;-0.69;64.84;102432.88;5050001;28;20582;-72
2022/03/10 04:51:32;;;;;;;15.88;7.05;;;;;;;-0.98;66.72;102438.25;5050384;28;20064;-72
2022/03/10 04:53:58;;;;;;;15.60;6.60;;;;;;;-0.84;65.67;102440.25;5048433;28;20081;-72
2022/03/10 04:56:26;;;;;;;17.35;7.32;;;;;;;-0.84;65.10;102445.41;5050714;28;20104;-72
2022/03/10 04:58:52;;;;;;;14.20;7.57;;;;;;;-0.87;65.12;102443.66;5048318;28;20075;-72
2022/03/10 05:01:18;;;;;;;16.00;6.38;;;;;;;-0.90;66.06;102443.59;5050770;28;20134;-72
2022/03/10 05:03:45;;;;;;;16.42;8.02;;;;;;;-1.20;67.92;102451.47;5050647;28;20575;-72
2022/03/10 05:06:11;;;;;;;19.40;8.00;;;;;;;-1.52;70.22;102461.00;5050651;28;20052;-72
2022/03/10 05:08:37;;;;;;;15.52;7.53;;;;;;;-1.22;69.32;102460.84;5048019;28;20558;-72
2022/03/10 05:11:04;;;;;;;19.08;7.60;;;;;;;-0.99;67.46;102453.66;5049710;28;20076;-72
2022/03/10 05:13:31;;;;;;;21.13;7.40;;;;;;;-1.09;67.28;102450.03;5049478;28;20129;-72
2022/03/10 05:15:58;;;;;;;32.17;8.02;;;;;;;-1.53;68.76;102458.38;5050304;28;20102;-72
2022/03/10 05:18:24;;;;;;;16.90;7.40;;;;;;;-1.28;68.86;102445.28;5048576;28;20085;-72
2022/03/10 05:20:51;;;;;;;15.98;7.35;;;;;;;-1.55;69.24;102449.75;5047720;28;20063;-72
2022/03/10 05:23:17;;;;;;;13.70;7.10;;;;;;;-1.65;68.90;102451.22;5048602;28;20776;-72
2022/03/10 05:25:46;;;;;;;15.93;7.30;;;;;;;-1.53;68.82;102458.38;5049715;28;20080;-72
2022/03/10 05:28:14;;;;;;;12.88;7.45;;;;;;;-1.29;68.02;102458.13;5046520;28;20473;-72
2022/03/10 05:30:41;;;;;;;14.95;7.13;;;;;;;-1.07;67.29;102456.06;5021713;28;20140;-73
2022/03/10 05:33:09;;;;;;;14.27;6.88;;;;;;;-0.93;66.91;102461.56;5024601;28;20134;-72
2022/03/10 05:35:36;;;;;;;15.18;7.53;;;;;;;-1.02;66.15;102457.06;5032728;28;20056;-72
2022/03/10 05:38:03;;;;;;;16.02;7.63;;;;;;;-1.29;66.83;102461.53;5041049;28;20099;-72
2022/03/10 05:40:29;;;;;;;13.18;6.90;;;;;;;-0.99;65.76;102469.13;5040417;28;20051;-72
2022/03/10 05:42:56;;;;;;;10.43;5.90;;;;;;;-1.03;65.72;102472.44;5042128;28;20517;-72
2022/03/10 05:45:24;;;;;;;15.32;6.43;;;;;;;-1.29;65.52;102468.41;5043653;28;20623;-72
2022/03/10 05:47:54;;;;;;;15.07;6.93;;;;;;;-1.15;65.62;102461.88;5043843;28;20080;-72
2022/03/10 05:50:21;;;;;;;17.95;7.72;;;;;;;-1.05;65.42;102464.72;5041750;28;20574;-72
2022/03/10 05:52:48;;;;;;;13.18;6.63;;;;;;;-1.23;66.76;102473.69;5043126;28;20122;-72
2022/03/10 05:55:15;;;;;;;12.70;6.63;;;;;;;-1.61;67.23;102473.63;5043359;28;20102;-72
2022/03/10 05:57:42;;;;;;;20.60;7.82;;;;;;;-1.52;67.56;102471.31;5045530;28;20080;-72
2022/03/10 06:00:10;;;;;;;12.20;6.47;;;;;;;-1.23;67.37;102464.28;5048585;28;20080;-72
2022/03/10 06:02:36;;;;;;;14.73;7.57;;;;;;;-1.05;68.01;102469.00;5048356;28;20063;-73
2022/03/10 06:05:05;;;;;;;12.43;6.78;;;;;;;-1.02;68.25;102466.47;5049229;28;20068;-72
2022/03/10 06:07:32;;;;;;;14.90;7.22;;;;;;;-1.05;68.76;102476.72;5049409;28;20154;-72
2022/03/10 06:09:58;;;;;;;15.93;8.05;;;;;;;-1.02;68.10;102472.50;5048323;28;20080;-72
2022/03/10 06:12:27;;;;;;;13.30;7.13;;;;;;;-0.83;67.54;102480.63;5048846;28;20569;-73
2022/03/10 06:14:54;;;;;;;14.93;7.15;;;;;;;-0.47;66.40;102481.44;5049078;28;20110;-73
2022/03/10 06:17:21;;;;;;;11.48;6.68;;;;;;;-0.27;65.05;102480.16;5049772;28;20049;-73
2022/03/10 06:19:47;;;;;;;16.60;7.72;;;;;;;0.01;64.53;102486.72;5048608;28;20064;-73
2022/03/10 06:22:17;;;;;;;12.50;6.65;;;;;;;0.44;64.16;102485.81;5047052;28;20080;-73
2022/03/10 06:24:44;;;;;;;16.73;7.57;;;;;;;0.51;63.82;102499.66;5041792;28;20056;-73
2022/03/10 06:27:10;;;;;;;16.08;7.95;;;;;;;1.22;62.11;102493.06;5040833;28;20834;-73
2022/03/10 06:29:38;;;;;;;14.32;7.43;;;;;;;1.53;61.89;102491.75;5045574;28;20048;-73
2022/03/10 06:32:05;;;;;;;16.10;7.40;;;;;;;1.77;61.06;102505.03;5048934;28;20509;-72
2022/03/10 06:34:31;;;;;;;18.38;7.00;;;;;;;1.95;59.98;102500.06;5048900;28;20101;-72
2022/03/10 06:36:58;;;;;;;17.73;8.27;;;;;;;2.04;61.26;102505.34;5048976;28;20075;-72
2022/03/10 06:39:26;;;;;;;20.52;8.43;;;;;;;2.38;60.03;102511.75;5047920;28;20099;-72
2022/03/10 06:41:53;;;;;;;19.98;8.82;;;;;;;2.21;59.87;102509.00;5045372;28;20134;-73
2022/03/10 06:44:19;;;;;;;15.40;8.63;;;;;;;2.43;60.09;102500.59;5047225;28;20068;-72
2022/03/10 06:46:45;;;;;;;15.40;8.25;;;;;;;2.99;58.33;102502.81;5047546;28;21530;-72
2022/03/10 06:49:12;;;;;;;15.25;8.40;;;;;;;3.51;57.55;102501.38;5047331;28;20111;-73
2022/03/10 06:51:39;;;;;;;17.95;7.88;;;;;;;3.87;57.20;102508.47;5048119;28;20053;-73
2022/03/10 06:54:05;;;;;;;16.85;9.30;;;;;;;4.15;57.58;102504.25;5050811;28;20049;-73
2022/03/10 06:56:34;;;;;;;15.65;8.85;;;;;;;4.46;57.43;102505.19;5067943;28;20048;-73
2022/03/10 06:59:00;;;;;;;18.75;10.02;;;;;;;5.10;55.77;102503.47;5067913;28;20149;-73
2022/03/10 07:01:27;;;;;;;22.90;9.52;;;;;;;5.43;55.20;102505.13;5067653;28;20114;-73
2022/03/10 07:03:57;;;;;;;17.48;9.02;;;;;;;6.12;54.22;102511.84;5063280;28;20093;-73
2022/03/10 07:06:23;;;;;;;18.38;8.30;;;;;;;6.13;53.33;102514.44;5056275;28;20049;-72
2022/03/10 07:08:49;;;;;;;21.58;9.05;;;;;;;6.37;53.93;102513.44;5049544;28;20045;-73
2022/03/10 07:11:16;;;;;;;16.17;9.48;;;;;;;6.88;52.75;102514.78;5068237;28;20053;-72
2022/03/10 07:13:44;;;;;;;18.88;10.05;;;;;;;7.45;49.08;102502.94;5068051;28;20045;-72
2022/03/10 07:16:10;;;;;;;19.70;9.25;;;;;;;7.97;47.47;102510.16;5060358;28;20056;-74
2022/03/10 07:18:37;;;;;;;17.50;9.70;;;;;;;8.34;47.89;102521.88;5055620;28;20496;-73
2022/03/10 07:21:05;;;;;;;21.45;11.98;;;;;;;8.62;46.54;102514.47;5046092;28;20048;-74
2022/03/10 07:23:32;;;;;;;21.48;11.20;;;;;;;8.77;47.04;102515.13;5037694;28;20053;-73
2022/03/10 07:25:58;;;;;;;27.33;11.25;;;;;;;9.26;45.17;102509.03;5066394;28;20044;-72
2022/03/10 07:28:25;;;;;;;17.60;10.73;;;;;;;9.65;43.63;102508.28;5066981;28;20037;-73
2022/03/10 07:30:53;;;;;;;19.08;11.18;;;;;;;9.43;44.05;102506.97;5066067;28;20090;-73
2022/03/10 07:33:21;;;;;;;16.27;9.93;;;;;;;9.35;42.36;102502.78;5047200;28;20057;-74
2022/03/10 07:35:47;;;;;;;19.65;10.77;;;;;;;9.26;45.11;102509.91;5049574;28;20050;-73
2022/03/10 07:38:14;;;;;;;19.38;10.45;;;;;;;9.40;42.57;102514.03;5047909;28;20102;-73
2022/03/10 07:40:40;;;;;;;20.17;10.20;;;;;;;9.49;45.46;102519.97;5040339;28;20443;-73
2022/03/10 07:43:06;;;;;;;50.60;10.18;;;;;;;10.51;41.53;102523.94;5063547;28;20044;-73
2022/03/10 07:45:33;;;;;;;17.60;10.70;;;;;;;10.53;41.01;102527.38;5059452;28;20117;-74
2022/03/10 07:48:01;;;;;;;19.27;10.73;;;;;;;11.24;39.64;102516.88;5060760;28;20559;-73
2022/03/10 07:50:28;;;;;;;15.38;9.48;;;;;;;11.53;37.25;102521.38;5063793;28;20052;-73
2022/03/10 07:52:54;;;;;;;19.52;10.13;;;;;;;11.29;39.55;102522.00;5070308;28;20045;-73
2022/03/10 07:55:21;;;;;;;15.43;10.50;;;;;;;11.05;39.97;102526.97;5074948;28;20045;-74
2022/03/10 07:57:47;;;;;;;14.60;9.48;;;;;;;11.25;39.58;102531.72;5068075;28;20135;-73
2022/03/10 08:00:14;;;;;;;21.27;10.50;;;;;;;11.31;38.90;102523.69;5067653;28;20063;-73
2022/03/10 08:02:40;;;;;;;15.48;9.35;;;;;;;11.87;40.29;102530.03;5060374;28;20401;-74
2022/03/10 08:05:09;;;;;;;30.15;11.15;;;;;;;12.72;36.31;102526.56;5054996;28;20609;-74
2022/03/10 08:07:36;;;;;;;20.70;10.15;;;;;;;13.04;36.30;102523.75;5053212;28;20091;-74
2022/03/10 08:10:04;;;;;;;16.20;10.20;;;;;;;12.12;38.93;102517.88;5050868;28;20508;-74
2022/03/10 08:12:32;;;;;;;18.10;10.85;;;;;;;12.30;37.84;102529.66;5067513;28;20052;-75
2022/03/10 08:14:59;;;;;;;19.75;10.70;;;;;;;11.82;39.79;102529.31;5055625;28;20053;-73
2022/03/10 08:17:26;;;;;;;19.02;10.02;;;;;;;12.68;37.29;102526.66;5067923;28;20044;-74
2022/03/10 08:19:52;;;;;;;15.68;10.60;;;;;;;13.59;36.47;102520.94;5068719;28;20044;-74
2022/03/10 08:22:21;;;;;;;17.60;9.73;;;;;;;13.43;36.30;102522.41;5071357;28;20070;-74
2022/03/10 08:24:48;;;;;;;18.73;10.48;;;;;;;13.08;37.96;102523.56;5069006;28;20044;-75
2022/03/10 08:27:15;;;;;;;16.77;10.32;;;;;;;12.14;36.88;102525.75;5039776;28;20041;-74
2022/03/10 08:29:42;;;;;;;25.38;11.32;;;;;;;10.94;40.70;102536.88;5047459;28;20066;-74
2022/03/10 08:32:08;;;;;;;17.83;9.45;;;;;;;11.75;39.15;102533.00;5069857;28;20044;-73
2022/03/10 08:34:35;;;;;;;20.10;10.82;;;;;;;11.13;40.59;102537.28;5061745;28;20052;-74
2022/03/10 08:37:02;;;;;;;15.65;10.10;;;;;;;12.34;38.21;102531.25;5049402;28;20044;-74
2022/03/10 08:39:29;;;;;;;17.65;10.38;;;;;;;12.12;38.48;102535.47;5038204;28;20055;-71
2022/03/10 08:41:56;;;;;;;22.42;11.52;;;;;;;12.75;35.96;102524.69;5049463;28;20390;-72
2022/03/10 08:44:23;;;;;;;20.13;11.45;;;;;;;11.90;37.83;102526.47;5047247;28;20052;-71
2022/03/10 08:46:50;;;;;;;17.92;10.05;;;;;;;11.68;37.26;102531.41;5050475;28;20073;-70
2022/03/10 08:49:17;;;;;;;19.77;11.25;;;;;;;11.77;38.35;102528.59;5049616;28;20743;-72
2022/03/10 08:51:43;;;;;;;25.02;10.52;;;;;;;13.46;35.12;102516.16;5050183;28;20076;-71
2022/03/10 08:54:11;;;;;;;19.60;10.77;;;;;;;13.44;37.52;102523.25;5050847;28;20534;-71
2022/03/10 08:56:38;;;;;;;19.13;11.07;;;;;;;13.25;34.88;102517.78;5050988;28;20062;-72
2022/03/10 08:59:05;;;;;;;19.90;10.70;;;;;;;13.26;34.40;102524.78;5049478;28;20076;-71
2022/03/10 09:01:31;;;;;;;18.60;11.25;;;;;;;13.05;35.88;102522.81;5047715;28;20073;-72
2022/03/10 09:03:58;;;;;;;17.73;10.57;;;;;;;12.44;35.74;102532.72;5048494;28;20157;-71
2022/03/10 09:06:24;;;;;;;19.42;10.65;;;;;;;11.84;38.49;102540.63;5050078;28;20083;-71
2022/03/10 09:08:50;;;;;;;25.15;12.27;;;;;;;11.57;38.93;102534.34;5047485;28;20206;-71
2022/03/10 09:11:17;;;;;;;23.23;10.80;;;;;;;12.67;38.41;102529.38;5049748;28;20142;-71
2022/03/10 09:13:48;;;;;;;20.33;11.52;;;;;;;12.50;38.03;102531.66;5049577;28;20068;-71
2022/03/10 09:16:15;;;;;;;22.17;11.95;;;;;;;12.46;38.58;102519.50;5050055;28;20065;-72
2022/03/10 09:18:41;;;;;;;20.90;10.93;;;;;;;12.99;37.32;102515.13;5029461;28;20102;-71
2022/03/10 09:21:07;;;;;;;21.73;10.77;;;;;;;12.70;36.57;102516.09;5036704;28;20057;-71
2022/03/10 09:23:34;;;;;;;19.60;11.30;;;;;;;12.02;37.40;102519.06;5045605;28;20530;-71
2022/03/10 09:26:00;;;;;;;19.38;11.05;;;;;;;12.30;38.03;102519.13;5036163;28;20083;-71
2022/03/10 09:28:26;;;;;;;16.35;9.90;;;;;;;10.89;39.60;102514.28;5048989;28;20069;-71
2022/03/10 09:30:54;;;;;;;28.40;12.02;;;;;;;11.59;40.39;102513.31;5048251;28;20068;-71
2022/03/10 09:33:21;;;;;;;21.40;10.93;;;;;;;12.95;37.06;102503.84;5049480;28;20081;-71
2022/03/10 09:35:47;;;;;;;21.73;11.50;;;;;;;12.54;38.08;102510.47;5045185;28;20076;-71
2022/03/10 09:38:14;;;;;;;18.58;11.15;;;;;;;12.71;37.52;102517.81;5037595;28;20393;-71
2022/03/10 09:40:40;;;;;;;21.30;12.60;;;;;;;12.85;38.78;102515.59;5047994;28;20566;-70
2022/03/10 09:43:06;;;;;;;22.52;11.32;;;;;;;13.11;38.44;102507.72;5045163;28;20129;-71
2022/03/10 09:45:36;;;;;;;19.52;11.27;;;;;;;12.67;37.28;102509.13;5040935;28;20088;-71
2022/03/10 09:48:04;;;;;;;19.13;10.77;;;;;;;12.85;38.74;102515.59;5049118;28;20072;-71
2022/03/10 09:50:31;;;;;;;20.10;11.25;;;;;;;11.78;38.11;102518.94;5048458;28;20710;-71
2022/03/10 09:52:57;;;;;;;21.10;10.95;;;;;;;12.72;38.41;102521.28;5051966;28;20068;-71
2022/03/10 09:55:23;;;;;;;20.40;10.80;;;;;;;12.98;38.00;102514.28;5068710;28;20084;-71
2022/03/10 09:57:50;;;;;;;17.35;10.05;;;;;;;12.77;36.72;102514.13;5059562;28;20045;-71
2022/03/10 10:00:18;;;;;;;14.00;7.47;;;;;;;13.26;34.63;102513.38;5040417;28;20401;-71
2022/03/10 10:02:45;;;;;;;15.48;7.22;;;;;;;13.31;34.50;102509.66;5038307;28;20041;-71
2022/03/10 10:05:28;;;;;;;15.77;9.05;;;;;;;13.41;33.95;102518.09;5058175;28;20044;-71
2022/03/10 10:08:03;;;;;;;18.27;9.55;;;;;;;12.76;35.88;102517.66;5064899;28;20072;-72
2022/03/10 10:10:31;;;;;;;16.83;9.73;;;;;;;14.03;36.09;102514.03;5068422;28;20084;-71
2022/03/10 10:12:57;;;;;;;19.10;10.25;;;;;;;14.78;34.18;102503.19;5043296;28;20114;-71
2022/03/10 10:15:24;;;;;;;15.98;9.73;;;;;;;14.99;34.83;102503.13;5063496;28;20084;-72
2022/03/10 10:17:56;;;;;;;16.10;9.98;;;;;;;13.85;35.43;102511.22;5069473;28;20408;-71
2022/03/10 10:20:22;;;;;;;18.65;10.32;;;;;;;14.35;35.58;102502.25;5040641;28;20052;-72
2022/03/10 10:22:51;;;;;;;17.45;9.93;;;;;;;14.90;36.92;102494.72;5066664;28;20045;-72
2022/03/10 10:25:21;;;;;;;14.30;7.35;;;;;;;15.28;33.16;102499.25;5061883;28;20054;-72
2022/03/10 10:27:47;;;;;;;20.10;9.77;;;;;;;14.53;34.56;102493.59;5052729;28;20474;-72
2022/03/10 10:30:14;;;;;;;15.50;7.65;;;;;;;14.66;36.11;102503.69;5043629;28;20048;-71
2022/03/10 10:32:48;;;;;;;13.35;7.00;;;;;;;15.70;33.87;102495.66;5039749;28;20159;-71
2022/03/10 10:35:20;;;;;;;10.52;6.00;;;;;;;14.79;34.39;102507.50;5039260;28;20120;-71
2022/03/10 10:37:49;;;;;;;10.00;6.15;;;;;;;14.52;35.14;102506.88;5043786;28;20124;-71
2022/03/10 10:40:21;;;;;;;12.70;5.88;;;;;;;14.66;35.98;102496.63;5048650;28;20677;-70
2022/03/10 10:42:48;;;;;;;12.38;5.35;;;;;;;14.10;36.04;102509.38;5035402;28;20556;-70
2022/03/10 10:45:30;;;;;;;13.85;4.85;;;;;;;13.62;36.40;102497.13;5056547;28;20056;-70
2022/03/10 10:48:04;;;;;;;9.75;4.95;;;;;;;13.97;36.70;102501.06;5060325;28;20044;-70
2022/03/10 10:50:31;;;;;;;9.10;5.10;;;;;;;12.80;37.01;102492.94;5051899;28;20425;-70
2022/03/10 10:52:58;;;;;;;11.55;5.80;;;;;;;13.38;39.11;102500.59;5051901;28;20040;-70
2022/03/10 10:55:33;;;;;;;11.93;6.75;;;;;;;12.98;38.73;102487.94;5065023;28;20044;-70
2022/03/10 10:58:06;;;;;;;10.50;5.07;;;;;;;12.93;41.66;102483.75;5056008;28;20412;-70
2022/03/10 11:00:41;;;;;;;13.93;6.45;;;;;;;13.36;41.05;102484.00;5053000;28;20048;-70
2022/03/10 11:03:20;;;;;;;13.52;7.65;;;;;;;13.38;39.00;102476.03;5050919;28;20048;-67
2022/03/10 11:05:48;;;;;;;11.20;6.03;;;;;;;12.84;38.90;102484.91;5059399;28;20447;-67
2022/03/10 11:08:15;;;;;;;11.23;6.30;;;;;;;13.65;39.00;102475.03;5065117;28;20041;-67
2022/03/10 11:10:42;;;;;;;11.38;5.65;;;;;;;13.04;39.57;102471.09;5067186;28;20045;-67
2022/03/10 11:13:09;;;;;;;15.38;6.15;;;;;;;13.87;38.97;102475.97;5068074;28;20060;-66
2022/03/10 11:15:36;;;;;;;12.35;5.72;;;;;;;13.40;38.47;102477.72;5068064;28;20131;-66
2022/03/10 11:18:04;;;;;;;16.25;6.53;;;;;;;13.22;37.98;102473.09;5066426;28;20071;-67
2022/03/10 11:20:32;;;;;;;12.07;5.45;;;;;;;13.24;38.14;102476.53;5062364;28;20129;-67
2022/03/10 11:23:06;;;;;;;10.57;6.07;;;;;;;13.35;39.41;102476.16;5047495;28;20044;-67
2022/03/10 11:25:46;;;;;;;8.35;4.95;;;;;;;13.43;38.51;102482.88;5052803;28;20103;-67